Time;durP1;ratioP1;P1;durP2;ratioP2;P2;SDS_P1;SDS_P2;PMS_P1;PMS_P2;Temp;Humidity;BMP_temperature;BMP_pressure;BME280_temperature;BME280_humidity;BME280_pressure;Samples;Min_cycle;Max_cycle;Signal;HPM_P1;HPM_P2
2021/10/25 00:00:26;;;;;;;;;;;9.10;99.90;;;;;;5013068;28;19945;-77
2021/10/25 00:02:52;;;;;;;;;;;9.00;99.90;;;;;;5010646;28;19917;-77
2021/10/25 00:05:18;;;;;;;;;;;9.00;99.90;;;;;;4996554;28;19924;-77
2021/10/25 00:07:43;;;;;;;;;;;9.10;99.90;;;;;;4997278;28;20023;-77
2021/10/25 00:10:09;;;;;;;;;;;9.10;99.90;;;;;;4997468;28;20433;-77
2021/10/25 00:12:35;;;;;;;;;;;9.00;99.90;;;;;;5013508;28;19914;-76
2021/10/25 00:15:01;;;;;;;;;;;9.10;99.90;;;;;;5011747;28;20406;-77
2021/10/25 00:17:26;;;;;;;;;;;9.00;99.90;;;;;;5005127;28;19917;-77
2021/10/25 00:19:52;;;;;;;;;;;9.00;99.90;;;;;;4997475;28;19910;-77
2021/10/25 00:22:18;;;;;;;;;;;9.00;99.90;;;;;;5006792;28;20286;-76
2021/10/25 00:24:44;;;;;;;;;;;9.00;99.90;;;;;;5014950;28;20374;-76
2021/10/25 00:27:10;;;;;;;;;;;9.00;99.90;;;;;;4989603;28;19914;-77
2021/10/25 00:29:35;;;;;;;;;;;9.00;99.90;;;;;;5006713;28;20370;-77
2021/10/25 00:32:01;;;;;;;;;;;9.00;99.90;;;;;;4997097;28;19918;-77
2021/10/25 00:34:26;;;;;;;;;;;9.00;99.90;;;;;;4992136;28;19917;-76
2021/10/25 00:36:52;;;;;;;;;;;9.00;99.90;;;;;;4984986;28;19918;-76
2021/10/25 00:39:18;;;;;;;;;;;9.00;99.90;;;;;;5014351;28;19952;-77
2021/10/25 00:41:44;;;;;;;;;;;9.10;99.90;;;;;;4996842;28;19920;-77
2021/10/25 00:44:09;;;;;;;;;;;9.10;99.90;;;;;;4997221;28;19995;-77
2021/10/25 00:46:35;;;;;;;;;;;9.10;99.90;;;;;;5014240;28;19910;-77
2021/10/25 00:49:01;;;;;;;;;;;9.20;99.90;;;;;;5014568;28;19916;-76
2021/10/25 00:51:26;;;;;;;;;;;9.20;99.90;;;;;;5014011;28;19918;-77
2021/10/25 00:53:52;;;;;;;;;;;9.20;99.90;;;;;;5000610;28;19914;-76
2021/10/25 00:56:18;;;;;;;;;;;9.30;99.90;;;;;;5000140;28;19917;-77
2021/10/25 00:58:43;;;;;;;;;;;9.30;99.90;;;;;;4976925;28;20008;-77
2021/10/25 01:01:09;;;;;;;;;;;9.30;99.90;;;;;;4979655;28;20352;-77
2021/10/25 01:03:35;;;;;;;;;;;9.30;99.90;;;;;;4995860;28;19910;-77
2021/10/25 01:06:01;;;;;;;;;;;9.40;99.90;;;;;;5013883;28;19917;-76
2021/10/25 01:08:29;;;;;;;;;;;9.40;99.90;;;;;;4995607;28;20556;-78
2021/10/25 01:10:55;;;;;;;;;;;9.40;99.90;;;;;;4992087;28;19914;-77
2021/10/25 01:13:21;;;;;;;;;;;9.40;99.90;;;;;;5013881;28;19920;-76
2021/10/25 01:15:46;;;;;;;;;;;9.40;99.90;;;;;;5013804;28;20309;-77
2021/10/25 01:18:12;;;;;;;;;;;9.40;99.90;;;;;;4996581;28;19909;-77
2021/10/25 01:20:38;;;;;;;;;;;9.50;99.90;;;;;;4996333;28;20333;-77
2021/10/25 01:23:04;;;;;;;;;;;9.50;99.90;;;;;;5013718;28;19968;-78
2021/10/25 01:25:30;;;;;;;;;;;9.50;99.90;;;;;;4995764;28;19925;-76
2021/10/25 01:27:56;;;;;;;;;;;9.50;99.90;;;;;;5013868;28;19914;-77
2021/10/25 01:30:22;;;;;;;;;;;9.60;99.90;;;;;;5013062;28;19913;-76
2021/10/25 01:32:49;;;;;;;;;;;9.60;99.90;;;;;;5014129;28;20267;-78
2021/10/25 01:35:15;;;;;;;;;;;9.60;99.90;;;;;;5013636;28;20271;-77
2021/10/25 01:37:41;;;;;;;;;;;9.60;99.90;;;;;;5013868;28;20374;-78
2021/10/25 01:40:07;;;;;;;;;;;9.70;99.90;;;;;;5013205;28;19924;-77
2021/10/25 01:42:33;;;;;;;;;;;9.70;99.90;;;;;;5012911;28;19914;-78
2021/10/25 01:44:59;;;;;;;;;;;9.80;99.90;;;;;;4996121;28;19913;-78
2021/10/25 01:47:25;;;;;;;;;;;9.80;99.90;;;;;;5013793;28;19920;-78
2021/10/25 01:49:51;;;;;;;;;;;9.80;99.90;;;;;;5013656;28;20004;-78
2021/10/25 01:52:16;;;;;;;;;;;9.90;99.90;;;;;;5013995;28;20027;-78
2021/10/25 01:54:42;;;;;;;;;;;9.80;99.90;;;;;;5013543;28;19920;-78
2021/10/25 01:57:08;;;;;;;;;;;9.90;99.90;;;;;;5013252;28;19977;-78
2021/10/25 01:59:34;;;;;;;;;;;9.80;99.90;;;;;;4993914;28;19914;-77
2021/10/25 02:02:00;;;;;;;;;;;9.90;99.90;;;;;;4999423;28;19918;-78
2021/10/25 02:04:26;;;;;;;;;;;9.90;99.90;;;;;;4995973;28;19924;-79
2021/10/25 02:06:53;;;;;;;;;;;9.90;99.90;;;;;;4996107;28;19925;-78
2021/10/25 02:09:18;;;;;;;;;;;9.90;99.90;;;;;;4994795;28;19913;-78
2021/10/25 02:11:44;;;;;;;;;;;9.90;99.90;;;;;;5010223;28;19913;-78
2021/10/25 02:14:10;;;;;;;;;;;10.00;99.90;;;;;;4995143;28;20362;-77
2021/10/25 02:16:36;;;;;;;;;;;10.00;99.90;;;;;;4995790;28;19920;-79
2021/10/25 02:19:02;;;;;;;;;;;10.10;99.90;;;;;;5014519;28;19913;-77
2021/10/25 02:21:27;;;;;;;;;;;10.10;99.90;;;;;;5017025;28;19920;-78
2021/10/25 02:23:53;;;;;;;;;;;10.10;99.90;;;;;;5017633;28;20282;-77
2021/10/25 02:26:18;;;;;;;;;;;10.10;99.90;;;;;;5016445;28;19928;-79
2021/10/25 02:28:44;;;;;;;;;;;10.10;99.90;;;;;;4997889;28;19925;-78
2021/10/25 02:31:11;;;;;;;;;;;10.10;99.90;;;;;;4990257;28;19914;-78
2021/10/25 02:33:37;;;;;;;;;;;10.10;99.90;;;;;;4997178;28;19918;-78
2021/10/25 02:36:05;;;;;;;;;;;10.10;99.90;;;;;;4996314;28;19936;-79
2021/10/25 02:38:31;;;;;;;;;;;10.10;99.90;;;;;;5015882;28;19920;-78
2021/10/25 02:40:56;;;;;;;;;;;10.10;99.90;;;;;;5016657;28;19918;-79
2021/10/25 02:43:22;;;;;;;;;;;10.10;99.90;;;;;;5016535;28;20297;-78
2021/10/25 02:45:47;;;;;;;;;;;10.10;99.90;;;;;;4998357;28;19918;-79
2021/10/25 02:48:13;;;;;;;;;;;10.10;99.90;;;;;;4999036;28;19941;-79
2021/10/25 02:50:39;;;;;;;;;;;10.20;99.90;;;;;;4998432;28;20298;-78
2021/10/25 02:53:09;;;;;;;;;;;10.20;99.90;;;;;;5016787;28;19913;-78
2021/10/25 02:55:35;;;;;;;;;;;10.20;99.90;;;;;;5015951;28;20446;-78
2021/10/25 02:58:02;;;;;;;;;;;10.10;99.90;;;;;;4998325;28;19921;-76
2021/10/25 03:00:27;;;;;;;;;;;10.20;99.90;;;;;;5015675;28;19971;-78
2021/10/25 03:02:53;;;;;;;;;;;10.20;99.90;;;;;;4996709;28;20286;-78
2021/10/25 03:05:18;;;;;;;;;;;10.20;99.90;;;;;;5016666;28;20366;-78
2021/10/25 03:07:44;;;;;;;;;;;10.20;99.90;;;;;;4998685;28;20185;-79
2021/10/25 03:10:10;;;;;;;;;;;10.20;99.90;;;;;;4998285;28;20243;-78
2021/10/25 03:12:36;;;;;;;;;;;10.20;99.90;;;;;;5016391;28;19917;-78
2021/10/25 03:15:02;;;;;;;;;;;10.30;99.90;;;;;;4997783;28;19921;-78
2021/10/25 03:17:28;;;;;;;;;;;10.30;99.90;;;;;;5015613;28;19913;-78
2021/10/25 03:19:53;;;;;;;;;;;10.40;99.90;;;;;;4998138;28;20393;-77
2021/10/25 03:22:19;;;;;;;;;;;10.40;99.90;;;;;;4997313;28;19921;-77
2021/10/25 03:24:45;;;;;;;;;;;10.50;99.90;;;;;;4998316;28;19921;-78
2021/10/25 03:27:10;;;;;;;;;;;10.50;99.90;;;;;;4997640;28;19921;-77
2021/10/25 03:29:36;;;;;;;;;;;10.50;99.90;;;;;;4993432;28;20110;-77
2021/10/25 03:32:02;;;;;;;;;;;10.50;99.90;;;;;;4972069;28;19921;-78
2021/10/25 03:34:28;;;;;;;;;;;10.50;99.90;;;;;;4977611;28;20000;-77
2021/10/25 03:36:54;;;;;;;;;;;10.60;99.90;;;;;;4993771;28;19921;-78
2021/10/25 03:39:23;;;;;;;;;;;10.60;99.90;;;;;;4994216;28;20354;-78
2021/10/25 03:41:51;;;;;;;;;;;10.60;99.90;;;;;;4993649;28;19921;-78
2021/10/25 03:44:24;;;;;;;;;;;10.60;99.90;;;;;;4994266;28;20016;-79
2021/10/25 03:46:58;;;;;;;;;;;10.50;99.90;;;;;;4993785;28;19920;-78
2021/10/25 03:51:50;;;;;;;;;;;10.60;99.90;;;;;;4990224;28;19941;-78
2021/10/25 03:54:23;;;;;;;;;;;10.60;99.90;;;;;;4993088;28;20433;-77
2021/10/25 04:12:51;;;;;;;;;;;10.60;99.90;;;;;;5015162;28;20134;-79
2021/10/25 04:13:31;;;;;;;;;;;10.70;99.90;;;;;;5009767;28;20458;-79
2021/10/25 04:29:15;;;;;;;;;;;10.80;99.90;;;;;;5014681;28;19913;-78
2021/10/25 04:31:43;;;;;;;;;;;10.80;99.90;;;;;;5004338;28;19952;-77
2021/10/25 04:34:08;;;;;;;;;;;10.70;99.90;;;;;;4986611;28;19913;-77
2021/10/25 04:36:34;;;;;;;;;;;10.80;99.90;;;;;;5014221;28;19913;-79
2021/10/25 04:38:59;;;;;;;;;;;10.70;99.90;;;;;;5015041;28;20005;-77
2021/10/25 04:41:25;;;;;;;;;;;10.70;99.90;;;;;;4996812;28;19917;-79
2021/10/25 04:43:50;;;;;;;;;;;10.70;99.90;;;;;;4996237;28;20374;-78
2021/10/25 04:46:16;;;;;;;;;;;10.70;99.90;;;;;;4996590;28;19921;-78
2021/10/25 04:48:42;;;;;;;;;;;10.70;99.90;;;;;;4996378;28;19963;-79
2021/10/25 04:51:08;;;;;;;;;;;10.60;99.90;;;;;;5014540;28;20375;-79
2021/10/25 04:53:34;;;;;;;;;;;10.60;99.90;;;;;;4996964;28;20270;-78
2021/10/25 04:56:00;;;;;;;;;;;10.50;99.90;;;;;;4997035;28;19913;-79
2021/10/25 04:58:27;;;;;;;;;;;10.60;99.90;;;;;;5014794;28;19913;-79
2021/10/25 05:00:52;;;;;;;;;;;10.60;99.90;;;;;;4995863;28;19987;-78
2021/10/25 05:03:18;;;;;;;;;;;10.50;99.90;;;;;;5013737;28;19921;-77
2021/10/25 05:05:43;;;;;;;;;;;10.50;99.90;;;;;;5013433;28;19917;-78
2021/10/25 05:08:09;;;;;;;;;;;10.50;99.90;;;;;;4995740;28;19918;-77
2021/10/25 05:10:34;;;;;;;;;;;10.50;99.90;;;;;;5013798;28;19968;-76
2021/10/25 05:13:00;;;;;;;;;;;10.40;99.90;;;;;;4996271;28;19914;-77
2021/10/25 05:15:26;;;;;;;;;;;10.40;99.90;;;;;;4995544;28;20370;-78
2021/10/25 05:17:51;;;;;;;;;;;10.40;99.90;;;;;;5014001;28;19921;-78
2021/10/25 05:20:17;;;;;;;;;;;10.40;99.90;;;;;;4996332;28;20274;-79
2021/10/25 05:22:42;;;;;;;;;;;10.40;99.90;;;;;;5012998;28;20299;-77
2021/10/25 05:25:08;;;;;;;;;;;10.50;99.90;;;;;;4996273;28;20378;-78
2021/10/25 05:27:34;;;;;;;;;;;10.40;99.90;;;;;;5013997;28;19914;-79
2021/10/25 05:30:00;;;;;;;;;;;10.40;99.90;;;;;;4996417;28;19913;-77
2021/10/25 05:32:26;;;;;;;;;;;10.40;99.90;;;;;;5013574;28;19921;-79
2021/10/25 05:34:52;;;;;;;;;;;10.30;99.90;;;;;;4996039;28;19914;-79
2021/10/25 05:37:18;;;;;;;;;;;10.30;99.90;;;;;;4996724;28;19914;-79
2021/10/25 05:39:43;;;;;;;;;;;10.30;99.90;;;;;;4996427;28;19963;-80
2021/10/25 05:42:10;;;;;;;;;;;10.30;99.90;;;;;;4991704;28;19913;-78
2021/10/25 05:44:36;;;;;;;;;;;10.30;99.90;;;;;;4996419;28;19918;-79
2021/10/25 05:47:10;;;;;;;;;;;10.30;99.90;;;;;;4979578;28;20271;-79
2021/10/25 05:49:35;;;;;;;;;;;10.30;99.90;;;;;;4996356;28;19913;-79
2021/10/25 05:52:01;;;;;;;;;;;10.40;99.90;;;;;;5013746;28;19917;-80
2021/10/25 05:54:27;;;;;;;;;;;10.30;99.90;;;;;;5000203;28;19917;-80
2021/10/25 05:56:53;;;;;;;;;;;10.30;99.90;;;;;;5002668;28;19952;-79
2021/10/25 05:59:24;;;;;;;;;;;10.30;99.90;;;;;;5002461;28;19914;-79
2021/10/25 06:02:08;;;;;;;;;;;10.30;99.90;;;;;;5010623;28;19914;-78
2021/10/25 06:04:34;;;;;;;;;;;10.30;99.90;;;;;;5012237;28;20401;-78
2021/10/25 06:06:59;;;;;;;;;;;10.20;99.90;;;;;;5019585;28;19960;-78
2021/10/25 06:09:28;;;;;;;;;;;10.20;99.90;;;;;;5020295;28;19919;-78
2021/10/25 06:11:53;;;;;;;;;;;10.30;99.90;;;;;;5019605;28;19920;-78
2021/10/25 06:14:27;;;;;;;;;;;10.20;99.90;;;;;;5002505;28;19913;-78
2021/10/25 06:16:58;;;;;;;;;;;10.20;99.90;;;;;;5001087;28;19965;-79
2021/10/25 06:19:23;;;;;;;;;;;10.10;99.90;;;;;;5019863;28;19920;-78
2021/10/25 06:21:49;;;;;;;;;;;10.10;99.90;;;;;;5001337;28;20278;-78
2021/10/25 06:24:14;;;;;;;;;;;10.20;99.90;;;;;;5001993;28;19914;-78
2021/10/25 06:26:41;;;;;;;;;;;10.10;99.90;;;;;;5001704;28;20275;-78
2021/10/25 06:29:07;;;;;;;;;;;10.10;99.90;;;;;;5019577;28;20386;-78
2021/10/25 06:31:33;;;;;;;;;;;10.10;99.90;;;;;;5001952;28;20405;-79
2021/10/25 06:34:02;;;;;;;;;;;10.10;99.90;;;;;;5020133;28;19948;-78
2021/10/25 06:36:30;;;;;;;;;;;10.10;99.90;;;;;;5002445;28;19952;-79
2021/10/25 06:38:58;;;;;;;;;;;10.10;99.90;;;;;;5019769;28;19960;-78
2021/10/25 06:41:24;;;;;;;;;;;10.10;99.90;;;;;;4992744;28;20293;-79
2021/10/25 06:43:50;;;;;;;;;;;10.10;99.90;;;;;;4991023;28;19914;-79
2021/10/25 06:46:17;;;;;;;;;;;10.10;99.90;;;;;;5001744;28;19921;-78
2021/10/25 06:48:43;;;;;;;;;;;10.10;99.90;;;;;;5002773;28;19963;-78
2021/10/25 06:51:09;;;;;;;;;;;10.10;99.90;;;;;;5002080;28;20429;-79
2021/10/25 06:53:34;;;;;;;;;;;10.10;99.90;;;;;;5019808;28;19956;-79
2021/10/25 06:56:00;;;;;;;;;;;10.10;99.90;;;;;;5002909;28;19913;-78
2021/10/25 06:58:25;;;;;;;;;;;10.10;99.90;;;;;;5001764;28;20386;-78
2021/10/25 07:00:51;;;;;;;;;;;10.10;99.90;;;;;;5000677;28;19961;-77
2021/10/25 07:03:17;;;;;;;;;;;10.10;99.90;;;;;;4996989;28;19964;-78
2021/10/25 07:05:43;;;;;;;;;;;10.10;99.90;;;;;;5017198;28;19923;-78
2021/10/25 07:08:09;;;;;;;;;;;10.10;99.90;;;;;;5016416;28;20333;-79
2021/10/25 07:10:38;;;;;;;;;;;10.10;99.90;;;;;;4998402;28;20000;-79
2021/10/25 07:13:04;;;;;;;;;;;10.10;99.90;;;;;;4998179;28;20397;-79
2021/10/25 07:15:32;;;;;;;;;;;10.10;99.90;;;;;;4998345;28;19924;-79
2021/10/25 07:18:09;;;;;;;;;;;10.20;99.90;;;;;;5015726;28;20282;-78
2021/10/25 08:04:37;;;;;;;;;;;10.50;99.90;;;;;;5028393;28;19989;-79
2021/10/25 08:07:08;;;;;;;;;;;10.50;99.90;;;;;;5023074;28;19981;-78
2021/10/25 08:12:09;;;;;;;;;;;10.50;99.90;;;;;;5039928;28;19960;-78
2021/10/25 08:14:39;;;;;;;;;;;10.50;99.90;;;;;;5021254;28;19902;-77
2021/10/25 08:17:04;;;;;;;;;;;10.50;99.90;;;;;;5038224;28;19976;-79
2021/10/25 08:19:30;;;;;;;;;;;10.60;99.90;;;;;;5021987;28;19901;-78
2021/10/25 08:22:02;;;;;;;;;;;10.60;99.90;;;;;;5022598;28;19964;-78
2021/10/25 08:24:30;;;;;;;;;;;10.60;99.90;;;;;;5023902;28;19921;-79
2021/10/25 08:26:55;;;;;;;;;;;10.70;99.90;;;;;;5021799;28;19939;-78
2021/10/25 08:29:22;;;;;;;;;;;10.70;99.90;;;;;;5021455;28;19917;-78
2021/10/25 08:31:55;;;;;;;;;;;10.70;99.90;;;;;;5021113;28;19904;-78
2021/10/25 08:39:53;;;;;;;;;;;10.80;99.90;;;;;;5027598;28;20003;-77
2021/10/25 08:42:39;;;;;;;;;;;10.80;99.90;;;;;;5019460;28;19906;-77
2021/10/25 08:45:09;;;;;;;;;;;10.80;99.90;;;;;;5030340;28;19925;-77
2021/10/25 08:47:39;;;;;;;;;;;10.80;99.90;;;;;;5022387;28;19917;-77
2021/10/25 08:50:06;;;;;;;;;;;10.80;99.90;;;;;;5000919;28;19967;-77
2021/10/25 08:52:32;;;;;;;;;;;10.80;99.90;;;;;;5000552;28;19913;-79
2021/10/25 08:54:59;;;;;;;;;;;10.80;99.90;;;;;;4998564;28;20436;-78
2021/10/25 08:57:26;;;;;;;;;;;10.70;99.90;;;;;;4996841;28;19968;-82
2021/10/25 08:59:57;;;;;;;;;;;10.80;99.90;;;;;;4996923;28;19914;-78
2021/10/25 09:02:23;;;;;;;;;;;10.80;99.90;;;;;;5010316;28;19920;-78
2021/10/25 09:04:56;;;;;;;;;;;10.80;99.90;;;;;;4996965;28;19921;-78
2021/10/25 09:07:22;;;;;;;;;;;10.90;99.90;;;;;;5014733;28;19914;-80
2021/10/25 09:09:47;;;;;;;;;;;10.90;99.90;;;;;;4994348;28;19913;-80
2021/10/25 09:12:15;;;;;;;;;;;10.90;99.90;;;;;;4984862;28;19914;-79
2021/10/25 09:14:41;;;;;;;;;;;11.00;99.90;;;;;;4993968;28;19919;-82
2021/10/25 09:17:07;;;;;;;;;;;11.00;99.90;;;;;;5015596;28;19921;-82
2021/10/25 09:19:34;;;;;;;;;;;11.00;99.90;;;;;;5011424;28;19913;-82
2021/10/25 09:22:07;;;;;;;;;;;11.00;99.90;;;;;;5013988;28;20369;-82
2021/10/25 09:24:32;;;;;;;;;;;10.90;99.90;;;;;;4997059;28;19940;-82
2021/10/25 09:27:01;;;;;;;;;;;11.00;99.90;;;;;;4996009;28;20329;-81
2021/10/25 09:29:28;;;;;;;;;;;11.00;99.90;;;;;;4982408;28;19918;-81
2021/10/25 09:31:54;;;;;;;;;;;10.90;99.90;;;;;;4993266;28;20012;-81
2021/10/25 09:34:31;;;;;;;;;;;11.00;99.90;;;;;;4996409;28;19913;-80
2021/10/25 09:37:03;;;;;;;;;;;11.10;99.90;;;;;;4994644;28;19967;-82
2021/10/25 09:40:12;;;;;;;;;;;11.10;99.90;;;;;;4996114;28;19920;-82
2021/10/25 09:45:24;;;;;;;;;;;11.20;99.90;;;;;;5013290;28;19964;-81
2021/10/25 09:50:47;;;;;;;;;;;11.30;99.90;;;;;;5013833;28;19920;-82
2021/10/25 09:53:13;;;;;;;;;;;11.30;99.90;;;;;;5013509;28;19914;-81
2021/10/25 09:55:44;;;;;;;;;;;11.40;99.90;;;;;;4996101;28;20413;-81
2021/10/25 09:58:16;;;;;;;;;;;11.40;99.90;;;;;;5013617;28;19913;-82
2021/10/25 10:00:43;;;;;;;;;;;11.50;99.90;;;;;;4995289;28;19920;-82
2021/10/25 10:03:08;;;;;;;;;;;11.60;99.90;;;;;;5013396;28;19922;-81
2021/10/25 10:05:36;;;;;;;;;;;11.70;99.90;;;;;;5013975;28;20386;-81
2021/10/25 10:08:03;;;;;;;;;;;11.80;99.90;;;;;;5012802;28;19936;-81
2021/10/25 10:10:29;;;;;;;;;;;11.80;99.90;;;;;;5013279;28;19929;-81
2021/10/25 10:12:54;;;;;;;;;;;11.90;99.90;;;;;;4995685;28;19913;-81
2021/10/25 10:15:23;;;;;;;;;;;11.90;99.90;;;;;;5010135;28;19921;-82
2021/10/25 10:17:51;;;;;;;;;;;12.00;99.90;;;;;;5013063;28;20330;-82
2021/10/25 10:20:21;;;;;;;;;;;12.00;99.90;;;;;;4995657;28;19924;-80
2021/10/25 10:22:48;;;;;;;;;;;12.00;99.90;;;;;;4984699;28;19917;-82
2021/10/25 10:25:24;;;;;;;;;;;12.00;99.90;;;;;;4995732;28;19949;-83
2021/10/25 10:27:56;;;;;;;;;;;12.10;99.90;;;;;;5013674;28;19914;-81
2021/10/25 10:30:22;;;;;;;;;;;12.10;99.90;;;;;;4995819;28;19964;-82
2021/10/25 10:32:56;;;;;;;;;;;12.20;99.90;;;;;;4995764;28;19913;-81
2021/10/25 10:35:22;;;;;;;;;;;12.20;99.90;;;;;;4992301;28;19913;-82
2021/10/25 10:37:57;;;;;;;;;;;12.30;99.90;;;;;;4995864;28;19916;-81
2021/10/25 10:40:24;;;;;;;;;;;12.20;99.90;;;;;;5014951;28;19920;-82
2021/10/25 10:42:50;;;;;;;;;;;12.30;99.90;;;;;;5017288;28;19910;-81
2021/10/25 10:45:17;;;;;;;;;;;12.30;99.90;;;;;;4998862;28;19963;-81
2021/10/25 10:47:53;;;;;;;;;;;12.30;99.90;;;;;;4997352;28;19963;-81
2021/10/25 10:50:21;;;;;;;;;;;12.20;99.90;;;;;;4999415;28;19980;-82
2021/10/25 10:52:57;;;;;;;;;;;12.20;99.90;;;;;;4999130;28;20283;-82
2021/10/25 10:55:25;;;;;;;;;;;12.30;99.90;;;;;;4999143;28;19924;-82
2021/10/25 11:00:25;;;;;;;;;;;12.20;99.90;;;;;;5016172;28;19909;-81
2021/10/25 11:03:00;;;;;;;;;;;12.20;99.90;;;;;;4999638;28;19917;-81
2021/10/25 11:05:29;;;;;;;;;;;12.30;99.90;;;;;;5016536;28;20425;-80
2021/10/25 11:08:08;;;;;;;;;;;12.30;99.90;;;;;;5017061;28;20429;-82
2021/10/25 11:10:40;;;;;;;;;;;12.30;99.90;;;;;;4998586;28;19917;-81
2021/10/25 11:13:08;;;;;;;;;;;12.30;99.90;;;;;;4998939;28;19940;-82
2021/10/25 11:15:40;;;;;;;;;;;12.30;99.90;;;;;;4998633;28;19944;-81
2021/10/25 11:18:06;;;;;;;;;;;12.40;99.90;;;;;;5016329;28;19921;-80
2021/10/25 11:20:33;;;;;;;;;;;12.50;99.90;;;;;;5013363;28;19913;-81
2021/10/25 11:23:06;;;;;;;;;;;12.50;99.90;;;;;;4998561;28;19909;-81
2021/10/25 11:25:39;;;;;;;;;;;12.50;99.90;;;;;;5015465;28;20310;-81
2021/10/25 11:28:11;;;;;;;;;;;12.50;99.90;;;;;;5000233;28;20011;-81
2021/10/25 11:30:37;;;;;;;;;;;12.60;99.90;;;;;;5015523;28;19913;-81
2021/10/25 11:33:03;;;;;;;;;;;12.50;99.90;;;;;;4998421;28;19992;-80
2021/10/25 11:35:28;;;;;;;;;;;12.50;99.90;;;;;;4998365;28;19914;-81
2021/10/25 11:37:59;;;;;;;;;;;12.60;99.90;;;;;;4998056;28;19979;-80
2021/10/25 11:40:25;;;;;;;;;;;12.60;99.90;;;;;;5015923;28;20330;-81
2021/10/25 11:42:50;;;;;;;;;;;12.60;99.90;;;;;;4998106;28;19920;-81
2021/10/25 11:45:17;;;;;;;;;;;12.60;99.90;;;;;;4998024;28;19983;-81
2021/10/25 11:47:44;;;;;;;;;;;12.60;99.90;;;;;;4997868;28;19921;-82
2021/10/25 11:50:20;;;;;;;;;;;12.60;99.90;;;;;;5016260;28;19910;-81
2021/10/25 11:52:53;;;;;;;;;;;12.70;99.90;;;;;;4997375;28;19960;-82
2021/10/25 11:55:25;;;;;;;;;;;12.70;99.90;;;;;;5015447;28;19917;-82
2021/10/25 11:57:52;;;;;;;;;;;12.70;99.90;;;;;;5008447;28;19921;-83
2021/10/25 12:00:19;;;;;;;;;;;12.70;99.90;;;;;;4998759;28;19909;-82
2021/10/25 12:02:45;;;;;;;;;;;12.80;99.90;;;;;;4997718;28;19945;-82
2021/10/25 12:05:11;;;;;;;;;;;12.80;99.90;;;;;;5011990;28;19976;-82
2021/10/25 12:07:46;;;;;;;;;;;12.80;99.90;;;;;;4993249;28;19972;-82
2021/10/25 12:10:11;;;;;;;;;;;12.80;99.90;;;;;;4998012;28;19956;-82
2021/10/25 12:12:37;;;;;;;;;;;12.80;99.90;;;;;;4997898;28;19964;-81
2021/10/25 12:15:03;;;;;;;;;;;12.90;99.90;;;;;;5015489;28;19966;-81
2021/10/25 12:17:32;;;;;;;;;;;12.90;99.90;;;;;;4997554;28;19913;-81
2021/10/25 12:19:59;;;;;;;;;;;12.90;99.90;;;;;;4994349;28;19961;-82
2021/10/25 12:22:25;;;;;;;;;;;12.90;99.90;;;;;;4997709;28;19955;-83
2021/10/25 12:24:51;;;;;;;;;;;12.90;99.90;;;;;;4997592;28;19965;-82
2021/10/25 12:27:22;;;;;;;;;;;12.90;99.90;;;;;;4997836;28;19925;-82
2021/10/25 12:29:57;;;;;;;;;;;12.90;99.90;;;;;;4997404;28;20004;-82
2021/10/25 12:32:22;;;;;;;;;;;13.00;99.90;;;;;;4996931;28;19922;-80
2021/10/25 12:34:53;;;;;;;;;;;13.10;99.90;;;;;;4997632;28;20366;-81
2021/10/25 12:37:21;;;;;;;;;;;13.10;99.90;;;;;;4997581;28;19909;-82
2021/10/25 12:39:47;;;;;;;;;;;13.20;99.90;;;;;;4996834;28;19924;-82
2021/10/25 12:42:13;;;;;;;;;;;13.20;99.90;;;;;;5015415;28;19909;-82
2021/10/25 12:44:44;;;;;;;;;;;13.30;99.90;;;;;;4997119;28;19927;-82
2021/10/25 12:47:09;;;;;;;;;;;13.30;99.90;;;;;;5014911;28;19913;-80
2021/10/25 12:49:35;;;;;;;;;;;13.40;99.90;;;;;;5015324;28;19910;-81
2021/10/25 12:52:05;;;;;;;;;;;13.50;99.90;;;;;;4997557;28;19933;-81
2021/10/25 12:54:37;;;;;;;;;;;13.50;99.90;;;;;;4996748;28;20290;-81
2021/10/25 12:57:16;;;;;;;;;;;13.50;99.90;;;;;;5012672;28;20005;-81
2021/10/25 12:59:42;;;;;;;;;;;13.50;99.90;;;;;;4997435;28;19992;-82
2021/10/25 13:02:09;;;;;;;;;;;13.50;99.90;;;;;;5015411;28;19914;-81
2021/10/25 13:04:36;;;;;;;;;;;13.50;99.90;;;;;;5014371;28;19909;-81
2021/10/25 13:07:13;;;;;;;;;;;13.40;99.90;;;;;;4996663;28;19913;-81
2021/10/25 13:10:05;;;;;;;;;;;13.50;99.90;;;;;;5012828;28;19920;-81
2021/10/25 13:12:31;;;;;;;;;;;13.60;99.90;;;;;;4992258;28;19913;-81
2021/10/25 13:14:56;;;;;;;;;;;13.60;99.90;;;;;;4997111;28;20287;-81
2021/10/25 13:17:22;;;;;;;;;;;13.60;99.90;;;;;;5014166;28;19913;-80
2021/10/25 13:19:48;;;;;;;;;;;13.70;99.90;;;;;;4993905;28;20389;-81
2021/10/25 13:22:14;;;;;;;;;;;13.80;99.90;;;;;;4996401;28;20004;-80
2021/10/25 13:24:39;;;;;;;;;;;13.90;99.90;;;;;;5014828;28;19944;-81
2021/10/25 13:27:05;;;;;;;;;;;13.90;99.90;;;;;;5014683;28;19964;-81
2021/10/25 13:29:31;;;;;;;;;;;13.90;99.90;;;;;;4993428;28;20427;-81
2021/10/25 13:31:56;;;;;;;;;;;13.80;99.90;;;;;;5013589;28;20000;-82
2021/10/25 13:34:22;;;;;;;;;;;13.80;99.90;;;;;;4996679;28;20019;-80
2021/10/25 13:36:50;;;;;;;;;;;13.80;99.90;;;;;;5014830;28;19917;-79
2021/10/25 13:39:17;;;;;;;;;;;13.80;99.90;;;;;;4996698;28;19968;-80
2021/10/25 13:41:43;;;;;;;;;;;13.80;99.90;;;;;;4996632;28;19937;-80
2021/10/25 13:44:09;;;;;;;;;;;13.80;99.90;;;;;;4996536;28;19917;-80
2021/10/25 13:46:35;;;;;;;;;;;13.80;99.90;;;;;;4996120;28;19921;-80
2021/10/25 13:49:00;;;;;;;;;;;13.80;99.90;;;;;;5014103;28;19913;-82
2021/10/25 13:51:27;;;;;;;;;;;13.80;99.90;;;;;;4973012;28;19925;-80
2021/10/25 13:53:53;;;;;;;;;;;13.80;99.90;;;;;;4973815;28;20013;-80
2021/10/25 13:56:19;;;;;;;;;;;13.80;99.90;;;;;;4972950;28;20009;-81
2021/10/25 13:58:44;;;;;;;;;;;13.70;99.90;;;;;;4966395;28;19950;-80
2021/10/25 14:01:10;;;;;;;;;;;13.70;99.90;;;;;;4971443;28;19960;-81
2021/10/25 14:03:37;;;;;;;;;;;13.70;99.90;;;;;;4956499;28;19921;-81
2021/10/25 14:06:04;;;;;;;;;;;13.70;99.90;;;;;;4972570;28;20371;-81
2021/10/25 14:08:30;;;;;;;;;;;13.60;99.90;;;;;;4973238;28;19914;-81
2021/10/25 14:10:56;;;;;;;;;;;13.70;99.90;;;;;;4972793;28;19941;-80
2021/10/25 14:18:36;;;;;;;;;;;13.70;99.90;;;;;;4976031;28;20070;-80
2021/10/25 14:21:02;;;;;;;;;;;13.70;99.90;;;;;;4977096;28;20355;-81
2021/10/25 14:23:30;;;;;;;;;;;13.70;99.90;;;;;;5015450;28;20328;-81
2021/10/25 14:25:56;;;;;;;;;;;13.70;99.90;;;;;;5018421;28;20500;-81
2021/10/25 14:28:23;;;;;;;;;;;13.80;99.90;;;;;;4996609;28;19914;-81
2021/10/25 14:30:49;;;;;;;;;;;13.70;99.90;;;;;;5014843;28;19920;-81
2021/10/25 14:33:14;;;;;;;;;;;13.80;99.90;;;;;;5017570;28;19914;-81
2021/10/25 14:35:40;;;;;;;;;;;13.80;99.90;;;;;;5000519;28;19914;-81
2021/10/25 14:38:11;;;;;;;;;;;13.80;99.90;;;;;;4986070;28;19922;-81
2021/10/25 14:40:58;;;;;;;;;;;13.90;99.90;;;;;;4995952;28;19914;-81
2021/10/25 14:43:31;;;;;;;;;;;13.90;99.90;;;;;;5017559;28;20397;-80
2021/10/25 14:46:03;;;;;;;;;;;13.90;99.90;;;;;;5018037;28;19922;-80
2021/10/25 14:48:41;;;;;;;;;;;13.90;99.90;;;;;;4993629;28;20415;-80
2021/10/25 14:53:55;;;;;;;;;;;14.00;99.90;;;;;;5017010;28;20377;-81
2021/10/25 14:56:21;;;;;;;;;;;14.00;99.90;;;;;;5017309;28;19913;-80
2021/10/25 14:58:47;;;;;;;;;;;14.10;99.90;;;;;;4999691;28;19913;-80
2021/10/25 15:01:16;;;;;;;;;;;14.00;99.90;;;;;;5000441;28;19936;-81
2021/10/25 15:03:42;;;;;;;;;;;14.10;99.90;;;;;;5017283;28;19936;-81
2021/10/25 15:06:09;;;;;;;;;;;14.10;99.90;;;;;;5002259;28;19917;-81
2021/10/25 15:08:34;;;;;;;;;;;14.10;99.90;;;;;;5015988;28;19914;-82
2021/10/25 15:11:00;;;;;;;;;;;14.10;99.90;;;;;;5003258;28;20293;-81
2021/10/25 15:13:26;;;;;;;;;;;14.10;99.90;;;;;;5005530;28;19918;-80
2021/10/25 15:15:52;;;;;;;;;;;14.10;99.90;;;;;;5015585;28;19917;-80
2021/10/25 15:18:18;;;;;;;;;;;14.10;99.90;;;;;;4998740;28;19921;-81
2021/10/25 15:20:44;;;;;;;;;;;14.10;99.90;;;;;;4995900;28;19914;-81
2021/10/25 15:23:10;;;;;;;;;;;14.00;99.90;;;;;;5014254;28;20336;-80
2021/10/25 15:25:37;;;;;;;;;;;14.10;99.90;;;;;;5016668;28;19937;-80
2021/10/25 15:28:04;;;;;;;;;;;14.10;99.90;;;;;;4997801;28;20428;-81
2021/10/25 15:30:30;;;;;;;;;;;14.10;99.90;;;;;;4998697;28;19965;-81
2021/10/25 15:32:56;;;;;;;;;;;14.10;99.90;;;;;;5011189;28;19925;-81
2021/10/25 15:35:21;;;;;;;;;;;14.00;99.90;;;;;;5016060;28;20333;-81
2021/10/25 15:37:47;;;;;;;;;;;14.10;99.90;;;;;;4997958;28;20275;-80
2021/10/25 15:40:13;;;;;;;;;;;14.10;99.90;;;;;;5015107;28;20350;-83
2021/10/25 15:42:39;;;;;;;;;;;14.10;99.90;;;;;;4998891;28;19913;-81
2021/10/25 15:45:05;;;;;;;;;;;14.10;99.90;;;;;;4998073;28;19918;-82
2021/10/25 15:47:31;;;;;;;;;;;14.10;99.90;;;;;;5016553;28;20454;-79
2021/10/25 15:49:58;;;;;;;;;;;14.10;99.90;;;;;;4998841;28;19914;-80
2021/10/25 15:52:23;;;;;;;;;;;14.10;99.90;;;;;;4998499;28;19914;-80
2021/10/25 15:54:49;;;;;;;;;;;14.10;99.90;;;;;;4998346;28;20389;-82
2021/10/25 15:57:15;;;;;;;;;;;14.10;99.90;;;;;;5016064;28;19914;-82